createdAt,value
2019-05-21T00:00:49.745Z,12.9
2019-05-21T00:02:49.785Z,13.2
2019-05-21T00:04:50.239Z,13.2
2019-05-21T00:06:50.418Z,13.5
2019-05-21T00:08:49.819Z,13.5
2019-05-21T00:10:49.997Z,15.3
2019-05-21T00:12:50.129Z,16.4
2019-05-21T00:14:50.336Z,16.9
2019-05-21T00:16:50.024Z,16.9
2019-05-21T00:18:50.132Z,16.8
2019-05-21T00:20:50.227Z,20.6
2019-05-21T00:22:50.250Z,19.7
2019-05-21T00:24:50.290Z,19.7
2019-05-21T00:26:49.863Z,22.6
2019-05-21T00:28:49.844Z,23.8
2019-05-21T00:30:49.972Z,24.4
2019-05-21T00:32:50.088Z,25.8
2019-05-21T00:34:49.668Z,25.8
2019-05-21T00:36:49.903Z,26.1
2019-05-21T00:38:52.025Z,26.8
2019-05-21T00:40:50.296Z,24.7
2019-05-21T00:42:49.555Z,31.3
2019-05-21T00:44:49.605Z,31.3
2019-05-21T00:46:49.903Z,25.5
2019-05-21T00:48:49.918Z,29.9
2019-05-21T00:50:50.071Z,28.5
2019-05-21T00:52:50.130Z,28.5
2019-05-21T00:54:50.230Z,30.3
2019-05-21T00:56:50.430Z,28.0
2019-05-21T00:58:49.760Z,26.1
2019-05-21T01:00:49.793Z,24.7
2019-05-21T01:02:49.821Z,24.9
2019-05-21T01:04:59.994Z,24.9
2019-05-21T01:06:49.498Z,23.9
2019-05-21T01:08:49.522Z,23.0
2019-05-21T01:10:49.636Z,22.7
2019-05-21T01:12:49.668Z,22.7
2019-05-21T01:14:49.725Z,20.1
2019-05-21T01:16:50.076Z,19.3
2019-05-21T01:18:50.266Z,22.5
2019-05-21T01:20:50.427Z,20.0
2019-05-21T01:22:49.667Z,20.0
2019-05-21T01:24:49.987Z,17.1
2019-05-21T01:26:50.218Z,18.5
2019-05-21T01:28:50.361Z,16.8
2019-05-21T01:30:49.477Z,16.8
2019-05-21T01:32:49.590Z,15.6
2019-05-21T01:34:50.123Z,17.8
2019-05-21T01:36:50.392Z,16.3
2019-05-21T01:38:49.708Z,14.9
2019-05-21T01:40:49.790Z,14.9
2019-05-21T01:42:49.938Z,20.2
2019-05-21T01:44:49.963Z,19.0
2019-05-21T01:46:50.212Z,14.9
2019-05-21T01:48:50.273Z,12.7
2019-05-21T01:50:50.351Z,12.7
2019-05-21T01:52:50.379Z,13.5
2019-05-21T01:54:49.501Z,14.6
2019-05-21T01:56:49.750Z,13.5
2019-05-21T01:58:49.786Z,13.8
2019-05-21T02:00:49.982Z,12.9
2019-05-21T02:02:50.246Z,12.9
2019-05-21T02:04:49.817Z,12.8
2019-05-21T02:06:50.106Z,16.0
2019-05-21T02:08:49.640Z,14.2
2019-05-21T02:10:49.734Z,14.2
2019-05-21T02:12:49.842Z,14.1
2019-05-21T02:14:49.938Z,15.4
2019-05-21T02:16:50.246Z,15.8
2019-05-21T02:18:50.281Z,15.7
2019-05-21T02:20:50.391Z,14.9
2019-05-21T02:22:49.528Z,14.9
2019-05-21T02:24:49.658Z,16.1
2019-05-21T02:26:49.935Z,17.3
2019-05-21T02:28:50.047Z,19.4
2019-05-21T02:30:50.049Z,19.4
2019-05-21T02:32:50.144Z,17.4
2019-05-21T02:34:49.707Z,19.3
2019-05-21T02:36:49.993Z,18.2
2019-05-21T02:38:50.067Z,18.2
2019-05-21T02:40:50.074Z,18.5
2019-05-21T02:42:50.203Z,20.0
2019-05-21T02:44:53.816Z,22.2
2019-05-21T02:46:49.955Z,24.2
2019-05-21T02:48:50.054Z,20.8
2019-05-21T02:50:50.104Z,20.8
2019-05-21T02:52:50.168Z,23.3
2019-05-21T02:54:50.290Z,23.7
2019-05-21T02:56:49.575Z,26.4
2019-05-21T02:58:49.736Z,26.4
2019-05-21T03:00:49.772Z,25.5
2019-05-21T03:02:49.765Z,25.9
2019-05-21T03:04:50.198Z,25.5
2019-05-21T03:06:49.528Z,25.5
2019-05-21T03:08:49.692Z,25.3
2019-05-21T03:10:49.793Z,24.0
2019-05-21T03:12:49.853Z,24.1
2019-05-21T03:14:49.956Z,24.1
2019-05-21T03:16:50.332Z,22.7
2019-05-21T03:18:50.405Z,22.7
2019-05-21T03:20:50.418Z,22.8
2019-05-21T03:22:49.563Z,23.0
2019-05-21T03:24:49.729Z,20.9
2019-05-21T03:26:49.984Z,20.9
2019-05-21T03:28:50.103Z,23.9
2019-05-21T03:30:50.197Z,22.8
2019-05-21T03:32:49.495Z,24.5
2019-05-21T03:34:50.092Z,25.2
2019-05-21T03:36:50.426Z,25.2
2019-05-21T03:38:49.483Z,24.3
2019-05-21T03:40:49.559Z,24.3
2019-05-21T03:42:49.725Z,26.3
2019-05-21T03:44:59.484Z,26.1
2019-05-21T03:46:49.985Z,26.1
2019-05-21T03:48:50.131Z,24.6
2019-05-21T03:50:50.251Z,24.0
2019-05-21T03:52:50.410Z,25.2
2019-05-21T03:54:49.469Z,24.0
2019-05-21T03:56:49.844Z,24.0
2019-05-21T03:58:49.856Z,24.0
2019-05-21T04:00:50.040Z,23.1
2019-05-21T04:02:50.189Z,22.7
2019-05-21T04:04:49.769Z,22.7
2019-05-21T04:06:52.209Z,20.1
2019-05-21T04:08:49.967Z,21.0
2019-05-21T04:10:50.143Z,20.2
2019-05-21T04:12:50.222Z,19.3
2019-05-21T04:14:50.289Z,19.3
2019-05-21T04:16:49.655Z,18.5
2019-05-21T04:18:49.744Z,18.5
2019-05-21T04:20:49.929Z,18.1
2019-05-21T04:22:50.090Z,18.1
2019-05-21T04:24:50.116Z,18.4
2019-05-21T04:26:49.969Z,18.5
2019-05-21T04:28:50.128Z,17.1
2019-05-21T04:30:50.208Z,17.1
2019-05-21T04:32:50.323Z,15.8
2019-05-21T04:34:49.760Z,15.8
2019-05-21T04:36:49.972Z,16.4
2019-05-21T04:38:50.121Z,13.8
2019-05-21T04:40:50.211Z,14.8
2019-05-21T04:42:50.408Z,17.0
2019-05-21T04:44:49.556Z,17.0
2019-05-21T04:46:49.801Z,13.6
2019-05-21T04:48:49.986Z,13.6
2019-05-21T04:50:50.140Z,14.5
2019-05-21T04:52:50.213Z,14.5
2019-05-21T04:54:50.301Z,14.6
2019-05-21T04:56:49.539Z,15.1
2019-05-21T04:58:49.653Z,11.6
2019-05-21T05:00:49.754Z,11.5
2019-05-21T05:02:49.816Z,11.8
2019-05-21T05:04:50.292Z,10.8
2019-05-21T05:06:50.407Z,10.8
2019-05-21T05:08:49.702Z,10.1
2019-05-21T05:10:49.766Z,9.2
2019-05-21T05:12:49.983Z,8.4
2019-05-21T05:14:50.183Z,8.4
2019-05-21T05:16:49.495Z,8.9
2019-05-21T05:18:49.596Z,7.8
2019-05-21T05:20:49.756Z,7.2
2019-05-21T05:22:49.842Z,7.2
2019-05-21T05:24:49.845Z,7.0
2019-05-21T05:26:50.013Z,7.0
2019-05-21T05:28:50.062Z,6.5
2019-05-21T05:30:50.127Z,6.2
2019-05-21T05:32:50.284Z,6.2
2019-05-21T05:34:49.727Z,6.2
2019-05-21T05:36:49.441Z,5.2
2019-05-21T05:38:49.518Z,5.2
2019-05-21T05:40:49.614Z,4.6
2019-05-21T05:42:49.782Z,4.6
2019-05-21T05:44:49.834Z,4.7
2019-05-21T05:46:50.044Z,4.9
2019-05-21T05:48:50.074Z,4.4
2019-05-21T05:50:50.099Z,4.4
2019-05-21T05:52:50.278Z,4.4
2019-05-21T05:54:50.421Z,3.9
2019-05-21T05:56:49.913Z,3.9
2019-05-21T05:58:50.038Z,3.8
2019-05-21T06:00:50.113Z,3.8
2019-05-21T06:02:50.252Z,3.6
2019-05-21T06:04:49.766Z,3.8
2019-05-21T06:06:49.970Z,3.9
2019-05-21T06:08:50.178Z,3.9
2019-05-21T06:10:50.224Z,3.8
2019-05-21T06:12:50.364Z,3.7
2019-05-21T06:14:49.536Z,3.7
2019-05-21T06:16:49.830Z,3.9
2019-05-21T06:18:50.100Z,3.9
2019-05-21T06:20:50.292Z,4.2
2019-05-21T06:22:50.439Z,3.9
2019-05-21T06:24:49.450Z,3.5
2019-05-21T06:26:49.669Z,3.4
2019-05-21T06:28:49.744Z,3.4
2019-05-21T06:30:49.953Z,3.4
2019-05-21T06:32:50.025Z,3.6
2019-05-21T06:34:49.423Z,3.6
2019-05-21T06:36:49.633Z,3.7
2019-05-21T06:38:49.806Z,3.7
2019-05-21T06:40:49.974Z,2.7
2019-05-21T06:42:50.158Z,2.5
2019-05-21T06:44:50.337Z,4.2
2019-05-21T06:46:49.701Z,3.1
2019-05-21T06:48:49.797Z,5.2
2019-05-21T06:50:49.820Z,5.2
2019-05-21T06:52:49.962Z,5.2
2019-05-21T06:54:50.044Z,4.0
2019-05-21T06:56:50.334Z,2.9
2019-05-21T06:58:50.359Z,2.9
2019-05-21T07:00:49.511Z,3.0
2019-05-21T07:02:49.768Z,2.5
2019-05-21T07:04:50.189Z,2.5
2019-05-21T07:06:50.377Z,2.5
2019-05-21T07:08:49.455Z,2.9
2019-05-21T07:10:49.578Z,2.3
2019-05-21T07:12:49.928Z,2.3
2019-05-21T07:14:50.300Z,1.9
2019-05-21T07:16:49.599Z,1.8
2019-05-21T07:18:49.717Z,1.8
2019-05-21T07:20:49.870Z,2.0
2019-05-21T07:22:50.024Z,2.3
2019-05-21T07:24:49.924Z,3.8
2019-05-21T07:26:50.168Z,3.8
2019-05-21T07:28:50.804Z,2.1
2019-05-21T07:30:50.224Z,1.7
2019-05-21T07:32:50.456Z,1.7
2019-05-21T07:34:50.152Z,1.9
2019-05-21T07:36:50.383Z,1.5
2019-05-21T07:38:53.007Z,1.5
2019-05-21T07:40:49.452Z,1.9
2019-05-21T07:42:49.632Z,3.0
2019-05-21T07:44:49.636Z,1.6
2019-05-21T07:46:50.046Z,3.2
2019-05-21T07:48:50.135Z,3.2
2019-05-21T07:50:50.318Z,1.3
2019-05-21T07:52:50.371Z,2.2
2019-05-21T07:54:49.478Z,1.7
2019-05-21T07:56:49.811Z,1.7
2019-05-21T07:58:49.955Z,2.1
2019-05-21T08:00:50.042Z,3.5
2019-05-21T08:02:50.152Z,2.1
2019-05-21T08:04:49.684Z,1.4
2019-05-21T08:06:49.861Z,1.4
2019-05-21T08:08:49.914Z,4.5
2019-05-21T08:10:49.965Z,4.1
2019-05-21T08:12:50.153Z,4.0
2019-05-21T08:14:50.314Z,4.3
2019-05-21T08:16:49.688Z,4.3
2019-05-21T08:18:49.807Z,2.0
2019-05-21T08:20:49.900Z,2.3
2019-05-21T08:22:49.927Z,2.4
2019-05-21T08:24:50.026Z,2.4
2019-05-21T08:26:50.349Z,1.7
2019-05-21T08:28:50.391Z,2.0
2019-05-21T08:30:50.437Z,2.1
2019-05-21T08:32:49.579Z,2.1
2019-05-21T08:34:50.016Z,2.4
2019-05-21T08:36:50.230Z,2.0
2019-05-21T08:38:50.346Z,2.0
2019-05-21T08:40:50.366Z,2.3
2019-05-21T08:42:50.360Z,2.3
2019-05-21T08:44:50.431Z,4.4
2019-05-21T08:46:49.789Z,3.1
2019-05-21T08:48:49.801Z,2.3
2019-05-21T08:50:49.931Z,2.2
2019-05-21T08:52:50.092Z,2.5
2019-05-21T08:54:50.138Z,2.5
2019-05-21T08:56:50.432Z,2.5
2019-05-21T08:58:49.513Z,2.8
2019-05-21T09:00:49.662Z,2.4
2019-05-21T09:02:49.690Z,3.1
2019-05-21T09:04:50.180Z,3.1
2019-05-21T09:06:49.504Z,2.8
2019-05-21T09:08:49.640Z,2.8
2019-05-21T09:10:49.694Z,3.0
2019-05-21T09:12:49.857Z,3.0
2019-05-21T09:14:49.944Z,3.0
2019-05-21T09:16:50.121Z,5.5
2019-05-21T09:18:50.283Z,2.9
2019-05-21T09:20:50.328Z,3.3
2019-05-21T09:22:50.425Z,3.8
2019-05-21T09:24:49.487Z,3.8
2019-05-21T09:26:49.736Z,5.7
2019-05-21T09:28:49.941Z,7.8
2019-05-21T09:30:50.015Z,4.7
2019-05-21T09:32:50.061Z,4.7
2019-05-21T09:34:49.663Z,8.0
2019-05-21T09:36:49.987Z,4.7
2019-05-21T09:38:50.163Z,4.7
2019-05-21T09:40:50.378Z,4.0
2019-05-21T09:42:50.392Z,4.0
2019-05-21T09:44:50.377Z,7.0
2019-05-21T09:46:49.611Z,4.4
2019-05-21T09:48:49.709Z,4.4
2019-05-21T09:50:49.795Z,3.7
2019-05-21T09:52:49.932Z,3.7
2019-05-21T09:54:50.100Z,3.3
2019-05-21T09:56:50.394Z,3.0
2019-05-21T09:58:49.641Z,3.0
2019-05-21T10:00:49.669Z,2.0
2019-05-21T10:02:50.426Z,2.0
2019-05-21T10:04:49.824Z,2.0
2019-05-21T10:06:50.073Z,2.0
2019-05-21T10:08:50.134Z,2.2
2019-05-21T10:10:50.232Z,2.1
2019-05-21T10:12:49.499Z,2.1
2019-05-21T10:14:49.526Z,2.3
2019-05-21T10:16:49.822Z,2.2
2019-05-21T10:18:49.986Z,2.3
2019-05-21T10:20:50.106Z,2.3
2019-05-21T10:22:50.155Z,2.4
2019-05-21T10:24:50.295Z,2.7
2019-05-21T10:26:49.459Z,2.9
2019-05-21T10:28:49.529Z,3.4
2019-05-21T10:30:49.676Z,3.4
2019-05-21T10:32:49.711Z,3.5
2019-05-21T10:34:50.170Z,3.6
2019-05-21T10:36:50.317Z,3.4
2019-05-21T10:38:50.420Z,3.4
2019-05-21T10:40:49.853Z,3.4
2019-05-21T10:42:50.144Z,2.9
2019-05-21T10:44:50.399Z,3.2
2019-05-21T10:46:49.639Z,3.4
2019-05-21T10:48:49.710Z,3.4
2019-05-21T10:50:49.831Z,3.5
2019-05-21T10:52:50.037Z,3.0
2019-05-21T10:54:50.107Z,3.1
2019-05-21T10:56:50.319Z,3.5
2019-05-21T10:58:50.386Z,3.5
2019-05-21T11:00:50.414Z,3.4
2019-05-21T11:02:49.551Z,3.0
2019-05-21T11:04:50.001Z,2.8
2019-05-21T11:06:50.229Z,2.7
2019-05-21T11:08:50.215Z,2.7
2019-05-21T11:10:50.343Z,2.3
2019-05-21T11:12:49.677Z,2.2
2019-05-21T11:14:49.717Z,2.5
2019-05-21T11:16:50.010Z,2.3
2019-05-21T11:18:50.226Z,2.3
2019-05-21T11:20:50.366Z,2.6
2019-05-21T11:22:49.764Z,3.3
2019-05-21T11:24:49.810Z,3.3
2019-05-21T11:26:50.053Z,2.4
2019-05-21T11:28:50.135Z,2.4
2019-05-21T11:30:50.329Z,2.6
2019-05-21T11:32:49.783Z,2.5
2019-05-21T11:34:50.598Z,5.4
2019-05-21T11:36:50.051Z,5.4
2019-05-21T11:38:50.160Z,5.3
2019-05-21T11:40:51.247Z,2.9
2019-05-21T11:42:52.699Z,4.2
2019-05-21T11:44:49.474Z,4.2
2019-05-21T11:46:49.885Z,6.8
2019-05-21T11:48:49.985Z,3.3
2019-05-21T11:50:50.089Z,3.3
2019-05-21T11:52:50.119Z,3.9
2019-05-21T11:54:50.138Z,3.5
2019-05-21T11:56:49.521Z,3.5
2019-05-21T11:58:49.530Z,3.2
2019-05-21T12:00:49.619Z,3.0
2019-05-21T12:02:49.689Z,3.3
2019-05-21T12:04:50.275Z,3.6
2019-05-21T12:06:49.573Z,3.6
2019-05-21T12:08:56.559Z,3.7
2019-05-21T12:10:49.459Z,8.7
2019-05-21T12:12:49.464Z,4.9
2019-05-21T12:14:49.623Z,4.9
2019-05-21T12:16:49.902Z,5.6
2019-05-21T12:18:50.109Z,6.6
2019-05-21T12:20:50.230Z,5.0
2019-05-21T12:22:50.413Z,6.0
2019-05-21T12:24:49.468Z,6.0
2019-05-21T12:26:49.737Z,7.3
2019-05-21T12:28:49.814Z,7.8
2019-05-21T12:30:49.868Z,5.5
2019-05-21T12:32:49.968Z,5.8
2019-05-21T12:34:50.360Z,5.5
2019-05-21T12:36:49.495Z,5.5
2019-05-21T12:38:49.579Z,5.3
2019-05-21T12:40:49.641Z,6.6
2019-05-21T12:42:49.718Z,6.8
2019-05-21T12:44:49.782Z,6.8
2019-05-21T12:46:50.073Z,6.9
2019-05-21T12:48:50.190Z,10.0
2019-05-21T12:50:50.267Z,15.6
2019-05-21T12:52:50.299Z,15.6
2019-05-21T12:54:49.497Z,10.2
2019-05-21T12:56:49.723Z,11.6
2019-05-21T12:58:49.714Z,13.6
2019-05-21T13:00:49.760Z,10.3
2019-05-21T13:02:49.858Z,10.3
2019-05-21T13:04:50.347Z,11.4
2019-05-21T13:06:49.633Z,10.5
2019-05-21T13:08:49.695Z,11.4
2019-05-21T13:10:50.117Z,6.7
2019-05-21T13:12:50.202Z,7.6
2019-05-21T13:14:50.273Z,7.6
2019-05-21T13:16:49.541Z,7.3
2019-05-21T13:18:49.648Z,8.3
2019-05-21T13:20:49.693Z,8.4
2019-05-21T13:22:49.956Z,8.4
2019-05-21T13:24:50.047Z,9.4
2019-05-21T13:26:50.280Z,9.6
2019-05-21T13:28:50.295Z,9.7
2019-05-21T13:30:49.437Z,9.7
2019-05-21T13:32:49.526Z,10.8
2019-05-21T13:34:50.169Z,10.8
2019-05-21T13:36:50.343Z,12.1
2019-05-21T13:38:50.419Z,12.1
2019-05-21T13:40:49.612Z,14.0
2019-05-21T13:42:49.852Z,14.4
2019-05-21T13:44:49.957Z,14.4
2019-05-21T13:46:50.130Z,15.5
2019-05-21T13:48:50.252Z,16.7
2019-05-21T13:50:50.295Z,16.7
2019-05-21T13:52:50.405Z,16.6
2019-05-21T13:54:50.201Z,20.1
2019-05-21T13:56:50.383Z,18.7
2019-05-21T13:58:49.561Z,19.5
2019-05-21T14:00:49.656Z,19.5
2019-05-21T14:02:49.782Z,19.0
2019-05-21T14:04:50.146Z,19.4
2019-05-21T14:06:50.417Z,18.2
2019-05-21T14:08:49.577Z,15.0
2019-05-21T14:10:49.666Z,15.4
2019-05-21T14:12:49.771Z,15.4
2019-05-21T14:14:50.178Z,15.1
2019-05-21T14:16:49.452Z,13.3
2019-05-21T14:18:49.729Z,13.2
2019-05-21T14:20:50.098Z,12.7
2019-05-21T14:22:50.248Z,12.7
2019-05-21T14:24:50.417Z,16.8
2019-05-21T14:26:49.744Z,12.6
2019-05-21T14:28:49.849Z,11.8
2019-05-21T14:30:49.911Z,11.8
2019-05-21T14:32:50.014Z,12.7
2019-05-21T14:35:00.598Z,11.9
2019-05-21T14:36:50.006Z,11.9
2019-05-21T14:38:50.092Z,13.4
2019-05-21T14:40:50.131Z,13.4
2019-05-21T14:42:58.998Z,11.8
2019-05-21T14:44:50.014Z,12.3
2019-05-21T14:46:50.171Z,12.3
2019-05-21T14:48:50.427Z,11.5
2019-05-21T14:50:50.030Z,11.5
2019-05-21T14:52:52.228Z,10.1
2019-05-21T14:54:49.589Z,8.9
2019-05-21T14:56:49.847Z,8.4
2019-05-21T14:58:50.281Z,8.6
2019-05-21T15:00:49.637Z,8.6
2019-05-21T15:02:49.748Z,7.4
2019-05-21T15:04:50.217Z,7.0
2019-05-21T15:06:50.080Z,7.4
2019-05-21T15:08:50.134Z,7.0
2019-05-21T15:10:50.264Z,7.0
2019-05-21T15:12:50.411Z,7.7
2019-05-21T15:14:49.571Z,6.7
2019-05-21T15:16:49.796Z,7.7
2019-05-21T15:18:49.810Z,7.8
2019-05-21T15:20:50.050Z,7.8
2019-05-21T15:22:50.175Z,8.6
2019-05-21T15:24:50.227Z,9.2
2019-05-21T15:26:50.315Z,9.4
2019-05-21T15:28:50.399Z,9.4
2019-05-21T15:30:49.484Z,9.9
2019-05-21T15:32:49.538Z,10.6
2019-05-21T15:34:50.169Z,13.4
2019-05-21T15:36:50.390Z,13.4
2019-05-21T15:38:50.873Z,14.0
2019-05-21T15:41:08.312Z,14.4
2019-05-21T15:42:53.013Z,15.2
2019-05-21T15:44:50.092Z,16.0
2019-05-21T15:46:51.133Z,16.0
2019-05-21T15:48:50.233Z,15.4
2019-05-21T15:50:49.702Z,15.9
2019-05-21T15:52:49.754Z,18.2
2019-05-21T15:54:49.702Z,17.6
2019-05-21T15:56:49.787Z,17.6
2019-05-21T15:58:49.779Z,21.2
2019-05-21T16:00:49.686Z,20.5
2019-05-21T16:02:49.792Z,20.7
2019-05-21T16:04:50.104Z,19.8
2019-05-21T16:06:50.209Z,19.8
2019-05-21T16:08:50.383Z,21.3
2019-05-21T16:10:49.866Z,27.7
2019-05-21T16:12:53.812Z,27.6
2019-05-21T16:14:49.611Z,22.9
2019-05-21T16:16:49.704Z,22.9
2019-05-21T16:18:49.757Z,25.3
2019-05-21T16:20:49.775Z,26.2
2019-05-21T16:22:49.762Z,26.8
2019-05-21T16:24:49.779Z,26.8
2019-05-21T16:26:50.023Z,23.7
2019-05-21T16:28:50.014Z,26.2
2019-05-21T16:30:50.057Z,27.3
2019-05-21T16:32:50.123Z,26.3
2019-05-21T16:34:49.660Z,25.2
2019-05-21T16:36:50.116Z,25.2
2019-05-21T16:38:50.116Z,26.9
2019-05-21T16:40:50.131Z,26.5
2019-05-21T16:42:50.166Z,28.2
2019-05-21T16:44:50.177Z,28.2
2019-05-21T16:46:50.245Z,26.3
2019-05-21T16:48:50.160Z,30.0
2019-05-21T16:50:50.260Z,31.2
2019-05-21T16:52:50.178Z,31.6
2019-05-21T16:54:50.119Z,31.6
2019-05-21T16:56:50.165Z,30.4
2019-05-21T16:58:50.198Z,29.5
2019-05-21T17:00:50.314Z,28.3
2019-05-21T17:02:49.884Z,26.4
2019-05-21T17:04:50.207Z,26.4
2019-05-21T17:06:49.476Z,26.6
2019-05-21T17:08:49.493Z,26.8
2019-05-21T17:10:50.435Z,28.3
2019-05-21T17:12:49.478Z,26.8
2019-05-21T17:14:50.412Z,26.8
2019-05-21T17:16:49.609Z,25.7
2019-05-21T17:18:49.726Z,26.8
2019-05-21T17:20:49.722Z,27.3
2019-05-21T17:22:49.682Z,26.4
2019-05-21T17:24:49.673Z,26.4
2019-05-21T17:26:49.808Z,27.7
2019-05-21T17:28:49.944Z,29.9
2019-05-21T17:30:49.879Z,25.8
2019-05-21T17:32:49.889Z,26.6
2019-05-21T17:34:50.182Z,26.6
2019-05-21T17:36:50.234Z,22.9
2019-05-21T17:38:50.190Z,21.8
2019-05-21T17:40:50.357Z,21.8
2019-05-21T17:42:49.461Z,22.3
2019-05-21T17:44:49.571Z,22.9
2019-05-21T17:46:49.835Z,25.9
2019-05-21T17:48:50.047Z,25.9
2019-05-21T17:50:50.150Z,21.6
2019-05-21T17:52:50.135Z,24.9
2019-05-21T17:54:56.565Z,24.9
2019-05-21T17:56:50.284Z,22.3
2019-05-21T17:58:50.266Z,22.3
2019-05-21T18:00:50.300Z,20.6
2019-05-21T18:02:50.212Z,20.6
2019-05-21T18:04:49.621Z,22.3
2019-05-21T18:06:49.758Z,22.3
2019-05-21T18:08:49.803Z,22.0
2019-05-21T18:10:49.825Z,22.0
2019-05-21T18:12:49.861Z,21.3
2019-05-21T18:14:49.831Z,21.0
2019-05-21T18:16:50.023Z,20.2
2019-05-21T18:18:49.994Z,20.8
2019-05-21T18:20:50.010Z,20.8
2019-05-21T18:22:50.108Z,21.2
2019-05-21T18:24:50.250Z,20.5
2019-05-21T18:26:50.414Z,18.7
2019-05-21T18:28:50.370Z,19.0
2019-05-21T18:30:50.415Z,19.0
2019-05-21T18:32:50.367Z,18.7
2019-05-21T18:34:49.540Z,20.1
2019-05-21T18:36:49.756Z,20.4
2019-05-21T18:38:49.788Z,21.7
2019-05-21T18:40:49.774Z,21.7
2019-05-21T18:42:49.734Z,22.4
2019-05-21T18:44:49.851Z,21.3
2019-05-21T18:46:49.992Z,21.5
2019-05-21T18:48:49.990Z,21.5
2019-05-21T18:50:49.958Z,21.5
2019-05-21T18:52:50.001Z,22.6
2019-05-21T18:54:50.026Z,21.7
2019-05-21T18:56:50.231Z,21.7
2019-05-21T18:58:50.371Z,21.1
2019-05-21T19:00:49.522Z,21.1
2019-05-21T19:02:49.496Z,19.1
2019-05-21T19:04:49.919Z,18.7
2019-05-21T19:06:50.391Z,18.7
2019-05-21T19:08:50.424Z,19.0
2019-05-21T19:10:49.534Z,17.3
2019-05-21T19:12:49.566Z,18.7
2019-05-21T19:14:49.584Z,20.1
2019-05-21T19:16:49.705Z,18.8
2019-05-21T19:18:49.648Z,18.8
2019-05-21T19:20:50.047Z,18.5
2019-05-21T19:22:50.265Z,17.0
2019-05-21T19:24:50.287Z,18.4
2019-05-21T19:26:49.934Z,17.2
2019-05-21T19:28:50.033Z,17.2
2019-05-21T19:30:50.126Z,20.0
2019-05-21T19:32:50.300Z,16.8
2019-05-21T19:34:49.643Z,16.8
2019-05-21T19:36:49.798Z,19.5
2019-05-21T19:38:49.859Z,19.5
2019-05-21T19:40:49.887Z,18.2
2019-05-21T19:42:54.733Z,18.3
2019-05-21T19:44:49.764Z,18.5
2019-05-21T19:46:49.904Z,18.5
2019-05-21T19:48:49.965Z,18.9
2019-05-21T19:50:49.931Z,18.9
2019-05-21T19:52:49.944Z,19.8
2019-05-21T19:54:49.902Z,19.8
2019-05-21T19:56:50.018Z,18.4
2019-05-21T19:58:49.976Z,18.4
2019-05-21T20:00:49.911Z,18.7
2019-05-21T20:02:50.000Z,18.7
2019-05-21T20:04:50.227Z,21.5
2019-05-21T20:06:50.248Z,18.6
2019-05-21T20:08:50.339Z,19.0
2019-05-21T20:10:50.337Z,20.1
2019-05-21T20:12:50.504Z,18.2
2019-05-21T20:14:49.556Z,20.3
2019-05-21T20:16:49.875Z,20.3
2019-05-21T20:18:50.088Z,21.9
2019-05-21T20:20:50.115Z,19.5
2019-05-21T20:22:50.050Z,21.0
2019-05-21T20:24:50.049Z,20.9
2019-05-21T20:26:50.122Z,20.9
2019-05-21T20:28:50.192Z,18.0
2019-05-21T20:30:50.131Z,16.9
2019-05-21T20:32:50.128Z,18.5
2019-05-21T20:34:51.038Z,19.9
2019-05-21T20:36:49.502Z,19.9
2019-05-21T20:38:49.528Z,19.6
2019-05-21T20:40:49.444Z,18.1
2019-05-21T20:42:49.562Z,18.1
2019-05-21T20:44:49.787Z,18.7
2019-05-21T20:46:49.869Z,18.7
2019-05-21T20:48:49.924Z,22.3
2019-05-21T20:50:49.954Z,19.6
2019-05-21T20:52:49.997Z,18.4
2019-05-21T20:54:49.962Z,18.4
2019-05-21T20:56:50.156Z,18.9
2019-05-21T20:58:50.119Z,17.9
2019-05-21T21:00:50.198Z,21.8
2019-05-21T21:02:50.273Z,19.5
2019-05-21T21:04:49.516Z,19.5
2019-05-21T21:06:49.821Z,18.0
2019-05-21T21:08:49.892Z,18.0
2019-05-21T21:10:49.942Z,18.0
2019-05-21T21:12:49.946Z,17.6
2019-05-21T21:14:49.986Z,17.6
2019-05-21T21:16:50.161Z,20.0
2019-05-21T21:18:50.124Z,18.1
2019-05-21T21:20:50.141Z,18.1
2019-05-21T21:22:50.183Z,21.3
2019-05-21T21:24:50.123Z,21.3
2019-05-21T21:26:50.332Z,19.3
2019-05-21T21:28:50.365Z,20.7
2019-05-21T21:30:50.394Z,20.9
2019-05-21T21:32:49.446Z,20.9
2019-05-21T21:34:49.807Z,24.4
2019-05-21T21:36:53.092Z,22.6
2019-05-21T21:38:49.570Z,22.6
2019-05-21T21:40:49.507Z,19.5
2019-05-21T21:42:49.509Z,19.5
2019-05-21T21:44:49.535Z,20.2
2019-05-21T21:46:49.640Z,23.0
2019-05-21T21:48:49.586Z,21.5
2019-05-21T21:50:49.596Z,21.5
2019-05-21T21:52:49.583Z,21.5
2019-05-21T21:54:49.687Z,22.6
2019-05-21T21:56:49.880Z,22.6
2019-05-21T21:58:49.908Z,22.6
2019-05-21T22:00:49.925Z,21.0
2019-05-21T22:02:49.759Z,21.0
2019-05-21T22:04:50.192Z,22.1
2019-05-21T22:06:50.374Z,21.6
2019-05-21T22:08:49.740Z,24.8
2019-05-21T22:10:49.752Z,21.6
2019-05-21T22:12:49.774Z,21.6
2019-05-21T22:14:51.924Z,22.7
2019-05-21T22:16:51.652Z,22.7
2019-05-21T22:18:49.944Z,22.1
2019-05-21T22:20:50.015Z,22.1
2019-05-21T22:22:50.030Z,23.5
2019-05-21T22:24:50.049Z,22.7
2019-05-21T22:26:49.572Z,22.2
2019-05-21T22:28:50.293Z,25.2
2019-05-21T22:30:50.287Z,23.5
2019-05-21T22:32:50.276Z,23.5
2019-05-21T22:34:49.773Z,23.1
2019-05-21T22:36:49.859Z,23.5
2019-05-21T22:38:49.829Z,23.5
2019-05-21T22:40:49.860Z,24.4
2019-05-21T22:42:49.935Z,24.4
2019-05-21T22:45:05.135Z,23.4
2019-05-21T22:46:49.823Z,24.4
2019-05-21T22:48:49.776Z,24.2
2019-05-21T22:50:49.775Z,24.2
2019-05-21T22:52:49.768Z,24.2
2019-05-21T22:54:49.745Z,26.2
2019-05-21T22:56:49.865Z,26.2
2019-05-21T22:58:49.831Z,27.2
2019-05-21T23:00:49.789Z,27.2
2019-05-21T23:02:49.857Z,25.8
2019-05-21T23:04:50.134Z,25.6
2019-05-21T23:06:50.322Z,25.6
2019-05-21T23:08:50.263Z,28.9
2019-05-21T23:10:50.335Z,28.9
2019-05-21T23:12:50.399Z,34.1
2019-05-21T23:14:49.539Z,33.7
2019-05-21T23:16:49.674Z,33.3
2019-05-21T23:18:49.733Z,36.7
2019-05-21T23:20:49.712Z,36.7
2019-05-21T23:22:49.696Z,38.7
2019-05-21T23:24:49.676Z,39.2
2019-05-21T23:26:49.794Z,41.9
2019-05-21T23:28:49.788Z,41.9
2019-05-21T23:30:49.814Z,41.9
2019-05-21T23:32:49.877Z,44.0
2019-05-21T23:34:50.226Z,45.2
2019-05-21T23:36:49.443Z,46.0
2019-05-21T23:38:50.377Z,46.0
2019-05-21T23:40:50.410Z,48.1
2019-05-21T23:42:49.422Z,53.1
2019-05-21T23:44:50.306Z,47.8
2019-05-21T23:46:50.391Z,47.8
2019-05-21T23:48:49.642Z,52.5
2019-05-21T23:50:49.689Z,47.9
2019-05-21T23:52:49.637Z,56.7
2019-05-21T23:54:49.615Z,55.3
2019-05-21T23:56:49.896Z,55.3
2019-05-21T23:58:49.850Z,56.9
